Time;durP1;ratioP1;P1;durP2;ratioP2;P2;SDS_P1;SDS_P2;PMS_P1;PMS_P2;Temp;Humidity;BMP_temperature;BMP_pressure;BME280_temperature;BME280_humidity;BME280_pressure;Samples;Min_cycle;Max_cycle;Signal;HPM_P1;HPM_P2
2022/05/10 00:00:12;;;;;;;6.35;2.63;;;13.10;63.90;;;;;;4958505;28;20030;-67
2022/05/10 00:02:41;;;;;;;5.78;2.33;;;13.20;64.20;;;;;;4956856;28;20100;-67
2022/05/10 00:05:08;;;;;;;6.85;2.08;;;13.10;64.20;;;;;;4951577;28;20119;-67
2022/05/10 00:07:36;;;;;;;7.32;2.35;;;13.20;64.20;;;;;;4950545;28;20034;-67
2022/05/10 00:10:04;;;;;;;5.38;2.30;;;13.10;64.00;;;;;;4953020;28;20547;-67
2022/05/10 00:12:30;;;;;;;3.38;2.40;;;13.10;64.00;;;;;;4943145;28;20022;-67
2022/05/10 00:14:56;;;;;;;3.50;2.50;;;13.20;64.30;;;;;;4942127;28;20761;-67
2022/05/10 00:17:26;;;;;;;4.60;2.42;;;13.20;64.30;;;;;;4959969;28;20039;-67
2022/05/10 00:19:52;;;;;;;5.95;2.50;;;13.20;63.90;;;;;;4955021;28;20122;-67
2022/05/10 00:22:18;;;;;;;5.55;2.47;;;13.20;63.90;;;;;;4957046;28;20101;-68
2022/05/10 00:24:44;;;;;;;4.22;2.33;;;13.20;63.20;;;;;;4950150;28;20035;-67
2022/05/10 00:27:10;;;;;;;5.68;2.50;;;13.30;63.20;;;;;;4954890;28;20042;-67
2022/05/10 00:29:35;;;;;;;7.25;2.85;;;13.30;63.00;;;;;;4957630;28;20455;-67
2022/05/10 00:32:02;;;;;;;5.55;2.83;;;13.30;63.00;;;;;;4935801;28;20031;-67
2022/05/10 00:34:29;;;;;;;4.85;2.47;;;13.30;62.90;;;;;;4961594;28;20062;-67
2022/05/10 00:36:56;;;;;;;7.82;2.92;;;13.30;63.10;;;;;;4956280;28;20035;-68
2022/05/10 00:39:22;;;;;;;6.18;2.97;;;13.30;62.80;;;;;;4952538;28;20041;-68
2022/05/10 00:42:09;;;;;;;6.28;2.92;;;13.30;62.60;;;;;;4954667;28;20129;-67
2022/05/10 00:44:40;;;;;;;;;;;13.30;62.60;;;;;;4958212;28;20030;-68
2022/05/10 00:47:12;;;;;;;7.00;2.67;;;13.30;62.50;;;;;;4955199;28;20283;-67
2022/05/10 00:50:01;;;;;;;9.35;2.90;;;13.30;62.70;;;;;;4951264;28;20063;-68
2022/05/10 00:52:45;;;;;;;6.88;3.17;;;13.40;62.10;;;;;;4956659;28;20422;-67
2022/05/10 00:55:26;;;;;;;7.60;2.75;;;13.50;62.00;;;;;;4958642;28;20046;-67
2022/05/10 00:58:03;;;;;;;4.82;2.60;;;13.50;61.90;;;;;;4956121;28;20106;-68
2022/05/10 01:00:29;;;;;;;4.68;2.97;;;13.50;61.90;;;;;;4955788;28;21506;-67
2022/05/10 01:03:07;;;;;;;5.32;3.38;;;13.50;61.70;;;;;;4954693;28;20031;-68
2022/05/10 01:05:42;;;;;;;9.50;3.00;;;13.60;61.60;;;;;;4952271;28;20038;-67
2022/05/10 01:08:24;;;;;;;4.65;2.60;;;13.60;61.50;;;;;;4948384;28;20039;-67
2022/05/10 01:10:59;;;;;;;6.00;2.70;;;13.50;61.70;;;;;;4953674;28;20082;-68
2022/05/10 01:13:32;;;;;;;8.93;2.90;;;13.50;61.60;;;;;;4958354;28;20876;-68
2022/05/10 01:16:06;;;;;;;3.83;2.70;;;13.50;61.60;;;;;;4936713;28;20114;-68
2022/05/10 01:18:33;;;;;;;5.03;2.85;;;13.50;61.40;;;;;;4960053;28;20022;-67
2022/05/10 01:21:12;;;;;;;9.38;3.13;;;13.50;61.10;;;;;;4955456;28;20042;-68
2022/05/10 01:24:03;;;;;;;5.25;2.40;;;13.50;61.20;;;;;;4951023;28;20118;-68
2022/05/10 01:26:49;;;;;;;5.32;2.80;;;13.50;61.20;;;;;;4951526;28;20039;-67
2022/05/10 01:29:23;;;;;;;7.07;2.65;;;13.40;61.70;;;;;;4958017;28;20053;-67
2022/05/10 01:33:29;;;;;;;8.40;2.95;;;13.40;62.10;;;;;;4956752;28;20658;-67
2022/05/10 01:34:40;;;;;;;3.65;2.67;;;13.40;62.30;;;;;;4956054;28;20107;-68
2022/05/10 01:37:12;;;;;;;5.13;2.55;;;13.40;62.20;;;;;;4956225;28;20037;-67
2022/05/10 01:39:54;;;;;;;3.92;2.53;;;13.30;62.60;;;;;;4950350;28;20023;-68
2022/05/10 01:42:29;;;;;;;4.95;2.60;;;13.30;62.90;;;;;;4949814;28;20035;-67
2022/05/10 01:44:54;;;;;;;5.10;3.00;;;13.20;63.60;;;;;;4957824;28;20039;-67
2022/05/10 01:47:43;;;;;;;8.13;2.78;;;13.10;64.00;;;;;;4957122;28;20515;-68
2022/05/10 01:50:48;;;;;;;4.53;2.72;;;13.10;64.40;;;;;;4957219;28;20031;-67
2022/05/10 01:53:18;;;;;;;4.15;2.47;;;13.00;64.40;;;;;;4919069;28;20039;-67
2022/05/10 01:56:01;;;;;;;5.55;2.90;;;12.90;64.50;;;;;;4952680;28;20489;-68
2022/05/10 01:58:33;;;;;;;6.55;2.95;;;12.90;65.20;;;;;;4951442;28;20074;-68
2022/05/10 02:01:16;;;;;;;8.18;2.95;;;12.80;65.10;;;;;;4954130;28;20496;-67
2022/05/10 02:03:48;;;;;;;7.78;3.05;;;12.80;65.40;;;;;;4937844;28;20070;-67
2022/05/10 02:06:33;;;;;;;5.80;3.20;;;12.70;65.40;;;;;;4955638;28;20070;-67
2022/05/10 02:09:39;;;;;;;5.28;2.40;;;12.70;65.60;;;;;;4962742;28;20911;-67
2022/05/10 02:12:14;;;;;;;4.33;2.80;;;12.60;66.10;;;;;;4954510;28;20045;-67
2022/05/10 02:14:51;;;;;;;5.05;2.95;;;12.50;66.30;;;;;;4955219;28;20030;-67
2022/05/10 02:17:30;;;;;;;5.70;2.83;;;12.40;66.80;;;;;;4955244;28;20043;-67
2022/05/10 02:20:02;;;;;;;7.18;2.80;;;12.40;67.00;;;;;;4959213;28;20035;-67
2022/05/10 02:22:36;;;;;;;5.45;3.00;;;12.30;67.20;;;;;;4956499;28;20077;-67
2022/05/10 02:25:06;;;;;;;6.80;2.88;;;12.20;67.30;;;;;;4961007;28;20133;-67
2022/05/10 02:27:48;;;;;;;4.07;2.55;;;12.20;67.40;;;;;;4962333;28;20061;-67
2022/05/10 02:30:21;;;;;;;6.80;2.90;;;12.20;67.70;;;;;;4960270;28;20078;-67
2022/05/10 02:33:06;;;;;;;7.18;3.03;;;12.10;68.00;;;;;;4961651;28;20118;-67
2022/05/10 02:35:54;;;;;;;6.22;2.97;;;12.00;67.90;;;;;;4961217;28;20090;-67
2022/05/10 02:38:32;;;;;;;4.53;2.75;;;12.00;68.20;;;;;;4957616;28;20913;-67
2022/05/10 02:41:00;;;;;;;7.53;3.30;;;12.00;68.50;;;;;;4955522;28;20042;-67
2022/05/10 02:43:31;;;;;;;4.00;2.70;;;11.90;68.70;;;;;;4961661;28;20720;-67
2022/05/10 02:45:57;;;;;;;6.22;2.85;;;11.90;68.80;;;;;;4963251;28;20119;-67
2022/05/10 02:48:36;;;;;;;5.82;3.50;;;11.90;68.80;;;;;;4958091;28;20149;-67
2022/05/10 02:51:03;;;;;;;3.40;2.45;;;11.80;68.90;;;;;;4960263;28;20093;-67
2022/05/10 02:53:29;;;;;;;5.00;3.28;;;11.80;68.90;;;;;;4959283;28;20046;-67
2022/05/10 02:56:05;;;;;;;5.47;3.35;;;11.80;69.20;;;;;;4959836;28;20027;-67
2022/05/10 02:58:35;;;;;;;8.80;2.60;;;11.70;69.40;;;;;;4963640;28;20039;-67
2022/05/10 03:01:42;;;;;;;5.97;2.90;;;11.70;69.80;;;;;;4947317;28;20046;-67
2022/05/10 03:04:10;;;;;;;5.93;3.30;;;11.70;70.20;;;;;;4962550;28;20074;-67
2022/05/10 03:06:37;;;;;;;8.05;3.03;;;11.60;70.10;;;;;;4959646;28;20035;-67
2022/05/10 03:09:03;;;;;;;4.72;3.33;;;11.60;70.40;;;;;;4961959;28;20029;-67
2022/05/10 03:11:29;;;;;;;5.90;3.00;;;11.60;70.60;;;;;;4964274;28;20450;-67
2022/05/10 03:13:55;;;;;;;6.97;3.38;;;11.60;70.80;;;;;;4953512;28;20055;-68
2022/05/10 03:16:24;;;;;;;5.00;2.90;;;11.60;70.90;;;;;;4950575;28;20031;-67
2022/05/10 03:18:51;;;;;;;5.72;3.50;;;11.60;70.90;;;;;;4954421;28;20034;-68
2022/05/10 03:21:18;;;;;;;5.30;3.30;;;11.60;70.70;;;;;;4960843;28;20114;-67
2022/05/10 03:23:44;;;;;;;9.15;3.70;;;11.60;71.00;;;;;;4961288;28;20501;-67
2022/05/10 03:26:12;;;;;;;5.32;3.17;;;11.60;70.80;;;;;;4961520;28;20039;-67
2022/05/10 03:28:38;;;;;;;6.88;3.00;;;11.60;71.00;;;;;;4956732;28;20026;-68
2022/05/10 03:31:06;;;;;;;7.47;3.58;;;11.60;71.10;;;;;;4938311;28;20519;-67
2022/05/10 03:33:32;;;;;;;4.47;2.83;;;11.60;70.80;;;;;;4959299;28;20094;-67
2022/05/10 03:35:58;;;;;;;5.75;3.35;;;11.60;70.50;;;;;;4960874;28;20071;-67
2022/05/10 03:38:23;;;;;;;5.80;3.30;;;11.70;70.30;;;;;;4962360;28;20059;-67
2022/05/10 03:40:49;;;;;;;6.15;3.55;;;11.60;70.40;;;;;;4959906;28;20034;-68
2022/05/10 03:43:15;;;;;;;4.60;3.13;;;11.70;70.10;;;;;;4963491;28;20031;-68
2022/05/10 03:45:41;;;;;;;8.20;3.30;;;11.70;69.90;;;;;;4960775;28;20039;-67
2022/05/10 03:48:07;;;;;;;8.63;3.85;;;11.80;69.90;;;;;;4953568;28;20027;-67
2022/05/10 03:50:33;;;;;;;5.75;3.58;;;11.80;70.20;;;;;;4960271;28;20037;-67
2022/05/10 03:53:00;;;;;;;5.57;2.97;;;11.80;69.80;;;;;;4961233;28;20082;-66
2022/05/10 03:55:27;;;;;;;5.25;3.03;;;11.90;69.50;;;;;;4960421;28;20043;-68
2022/05/10 03:57:53;;;;;;;4.55;2.97;;;11.90;69.50;;;;;;4958289;28;20031;-68
2022/05/10 04:00:23;;;;;;;5.45;2.97;;;12.00;69.70;;;;;;4956674;28;20917;-67
2022/05/10 04:02:49;;;;;;;5.75;3.38;;;12.00;69.30;;;;;;4965025;28;20479;-68
2022/05/10 04:05:16;;;;;;;5.28;3.05;;;12.00;68.90;;;;;;4956392;28;20050;-68
2022/05/10 04:07:43;;;;;;;5.88;3.63;;;12.00;68.80;;;;;;4937860;28;20554;-68
2022/05/10 04:10:10;;;;;;;5.95;3.45;;;12.10;69.20;;;;;;4959363;28;20042;-68
2022/05/10 04:12:36;;;;;;;6.00;3.65;;;12.10;69.50;;;;;;4959751;28;20041;-68
2022/05/10 04:15:04;;;;;;;6.68;3.70;;;12.20;68.80;;;;;;4959760;28;20054;-68
2022/05/10 04:17:30;;;;;;;6.03;3.00;;;12.20;68.50;;;;;;4957737;28;20035;-68
2022/05/10 04:19:55;;;;;;;5.75;3.15;;;12.20;68.40;;;;;;4958713;28;20935;-68
2022/05/10 04:22:21;;;;;;;7.40;3.30;;;12.30;68.30;;;;;;4956243;28;20042;-67
2022/05/10 04:24:47;;;;;;;8.63;3.67;;;12.30;67.90;;;;;;4955901;28;20097;-68
2022/05/10 04:27:12;;;;;;;5.45;3.20;;;12.40;67.80;;;;;;4958558;28;20026;-68
2022/05/10 04:29:38;;;;;;;4.75;2.85;;;12.50;68.00;;;;;;4955897;28;20073;-68
2022/05/10 04:32:04;;;;;;;10.25;3.45;;;12.50;67.70;;;;;;4957427;28;20175;-68
2022/05/10 04:34:33;;;;;;;5.45;3.17;;;12.60;67.40;;;;;;4955257;28;20411;-68
2022/05/10 04:36:59;;;;;;;5.68;3.40;;;12.70;67.90;;;;;;4963024;28;20030;-68
2022/05/10 04:39:25;;;;;;;10.98;3.45;;;12.80;67.80;;;;;;4961003;28;20042;-68
2022/05/10 04:42:10;;;;;;;4.57;3.10;;;12.80;67.70;;;;;;4954999;28;20035;-68
2022/05/10 04:44:36;;;;;;;8.48;3.42;;;12.90;67.40;;;;;;4954387;28;20034;-67
2022/05/10 04:47:02;;;;;;;7.43;3.05;;;13.00;67.80;;;;;;4931878;28;20101;-68
2022/05/10 04:49:28;;;;;;;7.30;3.15;;;13.10;68.50;;;;;;4947267;28;20483;-68
2022/05/10 04:51:53;;;;;;;8.73;4.05;;;13.10;68.40;;;;;;4943592;28;20023;-67
2022/05/10 04:54:19;;;;;;;7.50;3.78;;;13.20;68.70;;;;;;4954714;28;20035;-68
2022/05/10 04:56:45;;;;;;;9.38;3.55;;;13.30;68.40;;;;;;4957434;28;20138;-68
2022/05/10 04:59:10;;;;;;;7.53;3.42;;;13.40;68.30;;;;;;4956821;28;20043;-68
2022/05/10 05:01:36;;;;;;;8.25;3.13;;;13.50;67.70;;;;;;4959731;28;20081;-68
2022/05/10 05:04:02;;;;;;;7.20;3.60;;;13.70;67.10;;;;;;4953255;28;20039;-68
2022/05/10 05:06:29;;;;;;;8.30;3.53;;;13.90;66.30;;;;;;4950591;28;20133;-68
2022/05/10 05:08:55;;;;;;;8.75;3.60;;;14.10;64.90;;;;;;4950984;28;20199;-68
2022/05/10 05:11:21;;;;;;;5.85;3.10;;;14.30;64.00;;;;;;4943032;28;20402;-68
2022/05/10 05:13:47;;;;;;;10.32;3.63;;;14.60;63.50;;;;;;4956315;28;20116;-68
2022/05/10 05:16:13;;;;;;;6.45;3.17;;;15.50;60.70;;;;;;4957546;28;20030;-68
2022/05/10 05:18:38;;;;;;;7.18;3.13;;;16.40;58.80;;;;;;4955148;28;20049;-68
2022/05/10 05:21:04;;;;;;;6.72;3.70;;;16.80;56.70;;;;;;4948799;28;20042;-68
2022/05/10 05:23:30;;;;;;;7.18;3.50;;;17.10;55.60;;;;;;4954609;28;20085;-68
2022/05/10 05:25:56;;;;;;;6.10;3.03;;;17.50;54.30;;;;;;4954594;28;20522;-68
2022/05/10 05:28:22;;;;;;;9.20;3.60;;;18.30;53.10;;;;;;4956814;28;20567;-68
2022/05/10 05:30:49;;;;;;;6.20;3.40;;;19.00;50.80;;;;;;4950801;28;20126;-68
2022/05/10 05:33:16;;;;;;;8.00;3.53;;;19.30;50.30;;;;;;4952515;28;20035;-68
2022/05/10 05:35:42;;;;;;;5.50;3.30;;;19.50;50.30;;;;;;4958285;28;20599;-68
2022/05/10 05:38:07;;;;;;;4.25;2.70;;;20.10;48.70;;;;;;4951824;28;20031;-68
2022/05/10 05:40:35;;;;;;;8.95;3.40;;;20.90;47.30;;;;;;4954112;28;20121;-68
2022/05/10 05:43:01;;;;;;;8.80;3.08;;;21.70;45.80;;;;;;4956374;28;20046;-68
2022/05/10 05:45:27;;;;;;;7.72;3.25;;;22.90;42.80;;;;;;4959312;28;20035;-68
2022/05/10 05:47:55;;;;;;;11.98;3.60;;;23.20;41.30;;;;;;4954553;28;20062;-68
2022/05/10 05:50:23;;;;;;;6.65;3.30;;;22.70;41.40;;;;;;4950867;28;20031;-68
2022/05/10 05:52:52;;;;;;;8.85;3.33;;;21.90;43.10;;;;;;4950708;28;20030;-68
2022/05/10 05:55:19;;;;;;;6.63;3.70;;;21.40;44.10;;;;;;4959322;28;20034;-68
2022/05/10 05:57:45;;;;;;;5.28;3.20;;;21.10;45.10;;;;;;4945400;28;20487;-68
2022/05/10 06:00:18;;;;;;;7.55;2.75;;;21.00;45.10;;;;;;4957726;28;20418;-68
2022/05/10 06:02:44;;;;;;;8.35;3.13;;;21.10;45.70;;;;;;4958441;28;20509;-68
2022/05/10 06:05:10;;;;;;;6.50;3.25;;;21.00;45.10;;;;;;4957623;28;20046;-68
2022/05/10 06:07:36;;;;;;;5.57;3.05;;;20.60;46.20;;;;;;4954819;28;20038;-67
2022/05/10 06:10:03;;;;;;;5.60;3.15;;;20.40;46.90;;;;;;4953630;28;20030;-68
2022/05/10 06:12:29;;;;;;;4.60;2.47;;;20.20;47.10;;;;;;4962150;28;20061;-68
2022/05/10 06:14:55;;;;;;;8.73;3.35;;;20.10;48.00;;;;;;4956423;28;20451;-68
2022/05/10 06:17:21;;;;;;;6.22;3.03;;;20.10;48.30;;;;;;4960024;28;20085;-68
2022/05/10 06:19:47;;;;;;;6.40;3.25;;;20.10;48.00;;;;;;4955263;28;20118;-68
2022/05/10 06:22:14;;;;;;;7.90;2.97;;;19.90;48.00;;;;;;4940495;28;20046;-68
2022/05/10 06:24:40;;;;;;;9.32;3.60;;;19.80;48.80;;;;;;4950902;28;20070;-68
2022/05/10 06:27:11;;;;;;;8.15;3.30;;;19.70;49.20;;;;;;4961903;28;20038;-68
2022/05/10 06:29:36;;;;;;;8.77;3.30;;;19.50;49.40;;;;;;4957981;28;20045;-68
2022/05/10 06:32:03;;;;;;;9.65;3.22;;;19.40;49.50;;;;;;4957726;28;20035;-68
2022/05/10 06:34:28;;;;;;;8.00;3.50;;;19.20;50.00;;;;;;4944352;28;20113;-68
2022/05/10 06:36:54;;;;;;;5.68;3.00;;;19.20;50.60;;;;;;4960853;28;20139;-68
2022/05/10 06:39:20;;;;;;;4.22;3.08;;;19.40;49.90;;;;;;4951593;28;20031;-68
2022/05/10 06:41:45;;;;;;;5.72;3.38;;;19.40;49.90;;;;;;4954344;28;20037;-67
2022/05/10 06:44:11;;;;;;;7.53;3.40;;;19.40;50.10;;;;;;4959198;28;20038;-67
2022/05/10 06:46:37;;;;;;;10.02;3.80;;;19.50;50.40;;;;;;4958886;28;20035;-68
2022/05/10 06:49:04;;;;;;;11.40;2.95;;;19.30;51.00;;;;;;4955417;28;20043;-68
2022/05/10 06:51:31;;;;;;;5.30;3.22;;;19.30;50.70;;;;;;4960691;28;20037;-68
2022/05/10 06:53:57;;;;;;;8.23;3.97;;;19.30;51.00;;;;;;4953130;28;20521;-68
2022/05/10 06:56:23;;;;;;;7.22;3.28;;;19.30;51.10;;;;;;4952511;28;20039;-68
2022/05/10 06:58:49;;;;;;;5.97;3.25;;;19.30;51.30;;;;;;4961095;28;20068;-67
2022/05/10 07:01:16;;;;;;;6.90;3.40;;;19.30;51.50;;;;;;4955276;28;20379;-68
2022/05/10 07:03:47;;;;;;;6.20;3.13;;;19.20;52.20;;;;;;4956931;28;20027;-68
2022/05/10 07:06:16;;;;;;;9.05;3.58;;;19.40;51.60;;;;;;4952234;28;20035;-68
2022/05/10 07:08:42;;;;;;;6.65;2.90;;;19.60;51.30;;;;;;4956015;28;20034;-68
2022/05/10 07:11:08;;;;;;;10.18;3.15;;;19.70;50.80;;;;;;4958564;28;20448;-68
2022/05/10 07:13:34;;;;;;;5.63;2.70;;;19.90;50.00;;;;;;4953362;28;20042;-68
2022/05/10 07:16:02;;;;;;;5.50;3.03;;;20.40;49.70;;;;;;4956557;28;20031;-68
2022/05/10 07:18:27;;;;;;;10.13;3.40;;;20.70;49.10;;;;;;4953518;28;20141;-68
2022/05/10 07:20:54;;;;;;;4.57;2.88;;;20.90;48.70;;;;;;4954718;28;20117;-68
2022/05/10 07:23:26;;;;;;;6.95;3.30;;;21.10;48.00;;;;;;4955154;28;20048;-68
2022/05/10 07:25:52;;;;;;;6.47;2.83;;;21.10;47.60;;;;;;4960184;28;20038;-69
2022/05/10 07:28:17;;;;;;;4.50;2.95;;;21.30;47.60;;;;;;4959181;28;20110;-69
2022/05/10 07:30:43;;;;;;;6.35;2.90;;;21.40;46.80;;;;;;4959115;28;20031;-66
2022/05/10 07:33:10;;;;;;;8.18;2.63;;;21.50;47.30;;;;;;4954770;28;20113;-68
2022/05/10 07:38:25;;;;;;;10.95;3.35;;;21.80;46.40;;;;;;4954533;28;20042;-67
2022/05/10 07:40:53;;;;;;;8.95;2.55;;;22.10;46.10;;;;;;4947706;28;20115;-69
2022/05/10 07:43:20;;;;;;;5.65;2.78;;;22.20;45.90;;;;;;4945298;28;20569;-69
2022/05/10 07:45:50;;;;;;;8.35;3.00;;;22.30;45.30;;;;;;4951980;28;20558;-70
2022/05/10 07:48:15;;;;;;;4.18;2.92;;;22.40;44.80;;;;;;4954965;28;20031;-69
2022/05/10 07:50:41;;;;;;;8.15;2.90;;;22.40;45.10;;;;;;4958558;28;20031;-69
2022/05/10 07:53:12;;;;;;;6.70;2.60;;;22.50;44.90;;;;;;4955271;28;20046;-68
2022/05/10 07:55:37;;;;;;;7.53;3.05;;;22.50;45.00;;;;;;4950940;28;20041;-69
2022/05/10 07:58:04;;;;;;;8.00;2.90;;;22.50;44.90;;;;;;4952952;28;20074;-69
2022/05/10 08:00:31;;;;;;;4.55;2.65;;;22.50;45.20;;;;;;4935788;28;20062;-69
2022/05/10 08:02:57;;;;;;;5.13;2.50;;;22.70;45.60;;;;;;4957114;28;20037;-69
2022/05/10 08:05:25;;;;;;;13.75;3.35;;;23.00;44.90;;;;;;4956793;28;20701;-70
2022/05/10 08:07:51;;;;;;;8.50;2.70;;;23.30;43.80;;;;;;4957410;28;20027;-69
2022/05/10 08:10:18;;;;;;;5.18;2.40;;;23.60;43.70;;;;;;4956529;28;20045;-68
2022/05/10 08:12:44;;;;;;;7.75;2.92;;;23.70;43.30;;;;;;4952585;28;20037;-71
2022/05/10 08:15:12;;;;;;;4.07;2.35;;;23.60;43.50;;;;;;4953663;28;20043;-69
2022/05/10 08:17:39;;;;;;;6.13;2.42;;;23.60;43.60;;;;;;4953589;28;20033;-70
2022/05/10 08:20:07;;;;;;;5.80;2.33;;;23.70;43.00;;;;;;4956238;28;20105;-69
2022/05/10 08:22:33;;;;;;;6.85;2.17;;;23.60;43.20;;;;;;4954734;28;20093;-69
2022/05/10 08:24:59;;;;;;;6.20;2.40;;;23.60;43.40;;;;;;4958235;28;20067;-69
2022/05/10 08:27:24;;;;;;;8.38;2.95;;;23.70;42.80;;;;;;4955756;28;20619;-71
2022/05/10 08:29:50;;;;;;;7.22;2.35;;;23.70;42.80;;;;;;4936676;28;20035;-70
2022/05/10 08:32:16;;;;;;;7.00;2.50;;;23.60;43.00;;;;;;4950480;28;20031;-69
2022/05/10 08:34:42;;;;;;;11.13;2.72;;;23.60;42.40;;;;;;4952446;28;20046;-70
2022/05/10 08:37:08;;;;;;;6.43;2.50;;;23.70;42.90;;;;;;4955263;28;20046;-70
2022/05/10 08:39:34;;;;;;;7.78;2.00;;;23.90;43.10;;;;;;4954170;28;20031;-68
2022/05/10 08:42:25;;;;;;;3.63;2.03;;;24.00;41.50;;;;;;4954281;28;20038;-69
2022/05/10 08:44:58;;;;;;;5.38;2.13;;;24.10;41.40;;;;;;4954383;28;20054;-69
2022/05/10 08:47:25;;;;;;;7.15;2.38;;;23.90;40.90;;;;;;4951540;28;20059;-67
2022/05/10 08:49:58;;;;;;;3.60;2.28;;;24.00;41.50;;;;;;4959005;28;20030;-69
2022/05/10 08:52:30;;;;;;;19.23;6.38;;;24.30;41.10;;;;;;4953016;28;20645;-69
2022/05/10 08:54:57;;;;;;;37.60;14.35;;;24.60;39.50;;;;;;4958158;28;20118;-70
2022/05/10 08:57:43;;;;;;;6.60;2.65;;;24.60;39.30;;;;;;4950591;28;20035;-70
2022/05/10 09:00:28;;;;;;;6.57;2.17;;;24.70;39.70;;;;;;4954791;28;20042;-70
2022/05/10 09:03:00;;;;;;;6.43;1.90;;;24.80;39.20;;;;;;4953935;28;20031;-69
2022/05/10 09:05:28;;;;;;;5.28;2.03;;;25.00;39.00;;;;;;4957137;28;20038;-70
2022/05/10 09:08:22;;;;;;;8.15;4.05;;;25.40;38.30;;;;;;4954567;28;20031;-70
2022/05/10 09:11:01;;;;;;;10.45;4.38;;;25.40;38.30;;;;;;4953772;28;20089;-68
2022/05/10 09:13:27;;;;;;;10.48;3.75;;;25.90;38.60;;;;;;4953100;28;20027;-67
2022/05/10 09:16:02;;;;;;;9.90;3.72;;;26.10;37.90;;;;;;4951682;28;20727;-67
2022/05/10 09:18:39;;;;;;;9.93;4.07;;;25.60;37.90;;;;;;4954574;28;20039;-68
2022/05/10 09:21:24;;;;;;;5.18;2.67;;;25.60;38.40;;;;;;4956925;28;20042;-68
2022/05/10 09:24:24;;;;;;;6.47;2.45;;;25.60;38.30;;;;;;4950790;28;20043;-67
2022/05/10 09:26:57;;;;;;;5.30;2.13;;;25.60;38.10;;;;;;4941652;28;20065;-67
2022/05/10 09:29:44;;;;;;;5.93;2.38;;;26.00;37.50;;;;;;4955339;28;20114;-67
2022/05/10 09:35:24;;;;;;;6.47;3.50;;;25.80;37.50;;;;;;4951820;28;20407;-68
2022/05/10 09:37:54;;;;;;;5.57;2.50;;;26.00;37.60;;;;;;4959238;28;20042;-68
2022/05/10 09:40:35;;;;;;;27.80;9.98;;;26.30;37.60;;;;;;4954221;28;20051;-69
2022/05/10 09:43:23;;;;;;;11.13;4.78;;;26.10;37.70;;;;;;4954354;28;20035;-68
2022/05/10 09:46:12;;;;;;;9.07;3.03;;;25.70;37.80;;;;;;4949802;28;20049;-68
2022/05/10 09:48:42;;;;;;;13.88;3.97;;;25.60;39.10;;;;;;4946730;28;20039;-68
2022/05/10 09:51:40;;;;;;;25.92;10.30;;;26.20;39.50;;;;;;4948689;28;20845;-68
2022/05/10 09:54:21;;;;;;;7.07;2.55;;;26.60;37.30;;;;;;4954135;28;20064;-68
2022/05/10 09:56:56;;;;;;;10.02;3.15;;;26.30;38.00;;;;;;4952598;28;20081;-67
2022/05/10 09:59:22;;;;;;;11.35;3.15;;;27.00;36.90;;;;;;4938594;28;20866;-68
2022/05/10 10:01:57;;;;;;;6.28;2.90;;;27.40;36.50;;;;;;4956234;28;20110;-68
2022/05/10 10:04:31;;;;;;;6.18;2.90;;;27.40;37.10;;;;;;4954938;28;20651;-69
2022/05/10 10:07:13;;;;;;;6.95;2.67;;;27.60;36.30;;;;;;4951375;28;20419;-68
2022/05/10 10:09:43;;;;;;;5.85;2.40;;;27.60;36.70;;;;;;4952664;28;20138;-67
2022/05/10 10:12:16;;;;;;;8.88;2.85;;;27.00;36.80;;;;;;4951121;28;20041;-68
2022/05/10 10:14:46;;;;;;;7.28;2.95;;;26.70;37.30;;;;;;4953666;28;20041;-67
2022/05/10 10:17:28;;;;;;;5.20;2.33;;;26.80;37.70;;;;;;4957416;28;20142;-68
2022/05/10 10:20:28;;;;;;;8.65;2.60;;;26.80;37.30;;;;;;4954357;28;20075;-67
2022/05/10 10:22:55;;;;;;;8.80;3.50;;;27.00;37.90;;;;;;4948842;28;20110;-67
2022/05/10 10:25:26;;;;;;;8.15;2.13;;;27.00;36.90;;;;;;4950180;28;20035;-67
2022/05/10 10:28:04;;;;;;;4.45;2.17;;;27.20;36.80;;;;;;4951323;28;20698;-67
2022/05/10 10:30:41;;;;;;;8.80;4.45;;;27.60;36.20;;;;;;4956035;28;20085;-67
2022/05/10 10:33:36;;;;;;;6.30;3.35;;;27.40;35.80;;;;;;4955490;28;20045;-67
2022/05/10 10:36:18;;;;;;;4.78;1.75;;;27.30;37.60;;;;;;4957937;28;20570;-68
2022/05/10 10:39:13;;;;;;;6.35;2.45;;;27.50;36.00;;;;;;4951657;28;20030;-67
2022/05/10 10:42:02;;;;;;;6.05;2.92;;;27.50;36.10;;;;;;4955513;28;20134;-68
2022/05/10 10:44:30;;;;;;;13.55;4.95;;;27.90;35.80;;;;;;4939262;28;20410;-67
2022/05/10 10:46:59;;;;;;;10.48;4.93;;;27.70;36.20;;;;;;4959867;28;20099;-67
2022/05/10 10:49:35;;;;;;;9.35;4.75;;;27.80;35.90;;;;;;4956943;28;20042;-68
2022/05/10 10:52:01;;;;;;;3.90;2.63;;;27.60;36.10;;;;;;4959971;28;20139;-68
2022/05/10 10:54:30;;;;;;;12.15;6.93;;;28.10;36.30;;;;;;4960087;28;20613;-67
2022/05/10 10:57:21;;;;;;;4.70;2.80;;;28.20;36.40;;;;;;4957704;28;20039;-68
2022/05/10 11:00:10;;;;;;;20.27;11.10;;;28.50;35.30;;;;;;4957870;28;20070;-67
2022/05/10 11:02:57;;;;;;;15.75;9.75;;;29.00;34.80;;;;;;4952361;28;20041;-68
2022/05/10 11:06:13;;;;;;;11.95;5.15;;;28.80;34.80;;;;;;4957408;28;20126;-68
2022/05/10 11:09:07;;;;;;;5.00;2.60;;;28.20;35.50;;;;;;4940592;28;20050;-69
2022/05/10 11:11:32;;;;;;;5.32;2.95;;;27.90;35.80;;;;;;4955458;28;20031;-68
2022/05/10 11:14:10;;;;;;;7.90;3.47;;;27.90;36.30;;;;;;4958901;28;20035;-67
2022/05/10 11:16:50;;;;;;;6.28;2.67;;;27.70;36.50;;;;;;4959522;28;20041;-67
2022/05/10 11:19:22;;;;;;;5.30;2.40;;;27.60;36.20;;;;;;4957432;28;20035;-67
2022/05/10 11:22:15;;;;;;;8.98;3.08;;;27.70;36.50;;;;;;4953087;28;20039;-67
2022/05/10 11:25:06;;;;;;;8.60;2.92;;;27.80;35.90;;;;;;4952552;28;20031;-68
2022/05/10 11:28:06;;;;;;;6.80;2.13;;;27.90;35.60;;;;;;4959210;28;20029;-67
2022/05/10 11:30:57;;;;;;;3.15;2.30;;;27.80;35.40;;;;;;4956641;28;20825;-67
2022/05/10 11:33:47;;;;;;;14.75;5.40;;;27.90;35.60;;;;;;4938942;28;20077;-68
2022/05/10 11:36:34;;;;;;;4.75;2.38;;;27.70;35.60;;;;;;4958112;28;20047;-67
2022/05/10 11:39:18;;;;;;;11.70;4.70;;;27.70;36.10;;;;;;4953846;28;20126;-67
2022/05/10 11:42:02;;;;;;;4.93;2.63;;;27.30;36.00;;;;;;4953089;28;20031;-67
2022/05/10 11:44:55;;;;;;;2.80;2.05;;;27.10;36.70;;;;;;4951680;28;20039;-67
2022/05/10 11:47:42;;;;;;;3.72;2.47;;;27.20;36.20;;;;;;4956366;28;20035;-68
2022/05/10 11:51:38;;;;;;;11.05;4.78;;;27.60;36.40;;;;;;4958718;28;20066;-68
2022/05/10 11:54:00;;;;;;;18.50;3.58;;;27.70;37.40;;;;;;4958621;28;20023;-66
2022/05/10 11:56:33;;;;;;;4.05;2.45;;;27.70;36.50;;;;;;4958069;28;20117;-67
2022/05/10 11:59:03;;;;;;;6.40;3.47;;;27.70;36.90;;;;;;4958930;28;20042;-67
2022/05/10 12:01:42;;;;;;;9.20;4.45;;;27.50;36.60;;;;;;4956575;28;20034;-67
2022/05/10 12:04:28;;;;;;;16.65;6.53;;;27.50;36.40;;;;;;4958561;28;20050;-68
2022/05/10 12:06:54;;;;;;;12.02;6.35;;;27.40;36.80;;;;;;4957325;28;20043;-68
2022/05/10 12:09:51;;;;;;;9.70;6.13;;;27.50;36.80;;;;;;4957653;28;20122;-67
2022/05/10 12:12:33;;;;;;;7.22;4.22;;;27.70;36.50;;;;;;4957792;28;20170;-69
2022/05/10 12:21:47;;;;;;;10.68;3.67;;;28.00;36.30;;;;;;4956428;28;20081;-67
2022/05/10 12:24:30;;;;;;;9.90;4.15;;;28.30;35.00;;;;;;4956485;28;20037;-67
2022/05/10 12:27:09;;;;;;;8.38;3.80;;;28.10;35.50;;;;;;4959162;28;20094;-67
2022/05/10 12:29:38;;;;;;;3.53;2.47;;;28.20;35.70;;;;;;4958374;28;20030;-67
2022/05/10 12:32:34;;;;;;;3.95;2.45;;;28.30;34.60;;;;;;4958164;28;20034;-68
2022/05/10 12:35:04;;;;;;;3.67;2.40;;;28.10;35.00;;;;;;4958979;28;20073;-67
2022/05/10 12:37:50;;;;;;;4.95;3.08;;;27.90;34.10;;;;;;4957042;28;20057;-69
2022/05/10 12:40:24;;;;;;;6.15;2.92;;;27.90;34.80;;;;;;4956208;28;20151;-68
2022/05/10 12:43:22;;;;;;;4.82;2.58;;;27.70;35.60;;;;;;4955242;28;20041;-68
2022/05/10 12:45:57;;;;;;;5.57;1.98;;;27.40;34.90;;;;;;4956241;28;20069;-68
2022/05/10 12:48:29;;;;;;;;;;;27.00;35.20;;;;;;4956353;28;20031;-66
2022/05/10 12:51:33;;;;;;;2.80;2.13;;;27.10;35.70;;;;;;4955502;28;19914;-67
2022/05/10 12:54:07;;;;;;;4.10;2.40;;;27.40;35.30;;;;;;4954734;28;20041;-68
2022/05/10 12:57:12;;;;;;;2.35;2.00;;;27.60;35.80;;;;;;4957777;28;20042;-68
2022/05/10 13:00:03;;;;;;;5.15;2.33;;;27.80;34.80;;;;;;4954562;28;20043;-67
2022/05/10 13:02:30;;;;;;;6.72;3.42;;;27.80;35.40;;;;;;4956691;28;20593;-67
2022/05/10 13:05:01;;;;;;;7.22;3.33;;;27.10;36.00;;;;;;4958662;28;20031;-68
2022/05/10 13:07:52;;;;;;;8.57;2.70;;;27.20;36.50;;;;;;4956714;28;20121;-66
2022/05/10 13:10:23;;;;;;;3.33;2.13;;;27.30;36.50;;;;;;4955895;28;20059;-68
2022/05/10 13:12:58;;;;;;;3.30;2.30;;;27.70;35.30;;;;;;4956596;28;20034;-66
2022/05/10 13:15:24;;;;;;;5.95;2.15;;;27.90;34.90;;;;;;4932554;28;20058;-67
2022/05/10 13:17:56;;;;;;;6.90;2.70;;;28.00;35.00;;;;;;4957184;28;20166;-67
2022/05/10 13:20:26;;;;;;;3.67;2.20;;;28.20;34.80;;;;;;4956097;28;20038;-68
2022/05/10 13:23:00;;;;;;;2.53;2.10;;;28.00;35.00;;;;;;4956682;28;20046;-68
2022/05/10 13:25:30;;;;;;;3.22;2.40;;;27.80;35.50;;;;;;4955759;28;20703;-66
2022/05/10 13:28:16;;;;;;;5.28;2.58;;;27.70;35.40;;;;;;4957320;28;20070;-68